This is the latest recevied weather packets stored in our database for station/object OK2KJT-11. If no packets are shown the sender has not sent any weather packets the latest 10 day(s).
| Time | Temp. | Humidity | Pressure | Rain* | Wind** | Luminosity | Snow |
|---|---|---|---|---|---|---|---|
| 1787838165 | 25° C | 45% | 1021.7 hPa | - | - | - | - |
| 1787837566 | 24.44° C | 48% | 1021.7 hPa | - | - | - | - |
| 1787836965 | 25.56° C | 44% | 1021.8 hPa | - | - | - | - |
| 1787836365 | 25.56° C | 44% | 1021.8 hPa | - | - | - | - |
| 1787835764 | 25° C | 46% | 1021.7 hPa | - | - | - | - |
| 1787835165 | 26.67° C | 43% | 1021.8 hPa | - | - | - | - |
| 1787834564 | 25.56° C | 48% | 1021.8 hPa | - | - | - | - |
| 1787833963 | 25° C | 45% | 1021.9 hPa | - | - | - | - |
| 1787833364 | 25.56° C | 46% | 1022 hPa | - | - | - | - |
| 1787832763 | 26.67° C | 45% | 1021.9 hPa | - | - | - | - |
| 1787832164 | 26.11° C | 47% | 1022 hPa | - | - | - | - |
| 1787831563 | 25° C | 47% | 1022.1 hPa | - | - | - | - |
| 1787830963 | 25° C | 47% | 1022.2 hPa | - | - | - | - |
| 1787830363 | 26.67° C | 44% | 1022.3 hPa | - | - | - | - |
| 1787829762 | 27.22° C | 45% | 1022.4 hPa | - | - | - | - |
| 1787829163 | 26.11° C | 46% | 1022.4 hPa | - | - | - | - |
| 1787828562 | 26.11° C | 47% | 1022.5 hPa | - | - | - | - |
| 1787827962 | 25.56° C | 50% | 1022.5 hPa | - | - | - | - |
| 1787826761 | 25° C | 50% | 1022.5 hPa | - | - | - | - |
| 1787826162 | 25.56° C | 49% | 1022.4 hPa | - | - | - | - |
| 1787825562 | 25.56° C | 50% | 1022.4 hPa | - | - | - | - |
| 1787824962 | 25° C | 50% | 1022.4 hPa | - | - | - | - |
| 1787824362 | 24.44° C | 49% | 1022.4 hPa | - | - | - | - |
| 1787823762 | 23.89° C | 53% | 1022.4 hPa | - | - | - | - |
| 1787823162 | 22.78° C | 56% | 1022.4 hPa | - | - | - | - |
* Rain since midnight (hover to see other rain measurements)
** Current wind speed in m/s (hover to see current wind gust speed)